Enterprise, Kansas
Current Conditions -  °F | °C
As of 1:58 AM on Tuesday 27 Jan 2015 (Local Time) from KFRI Reporting Station
Clear Clear  
Wind Chill: 30°   Ceiling: Unl
Heat Index: 30°   Visibility: 10mi
Dew Point: 28°   Wind: 0mph
Humidity: 93%   Direction: NA
Pressure: 30.09"   Gusts: NA
Location:  38.9°N, 97.12°W
Report Text: KFRI 270758Z AUTO 00000KT 10SM CLR M01/M02 A3009 RMK AO2 SLP191 T10121022
Loading
Personal Weather Stations






























Interactive Weather Map New forecast layout! Learn more

10-Day Weather Forecast

Advertisements
Track Severe Weather on mobile